createdAt,value
2019-05-28T00:03:34.630Z,12.20
2019-05-28T00:08:29.185Z,12.00
2019-05-28T00:13:22.660Z,12.00
2019-05-28T00:18:16.403Z,11.90
2019-05-28T00:23:09.957Z,11.80
2019-05-28T00:28:03.530Z,11.90
2019-05-28T00:33:03.213Z,12.00
2019-05-28T00:37:56.764Z,12.00
2019-05-28T00:42:51.314Z,13.50
2019-05-28T00:47:45.246Z,12.20
2019-05-28T00:52:44.910Z,12.10
2019-05-28T00:57:47.475Z,12.10
2019-05-28T01:02:41.486Z,12.00
2019-05-28T01:07:45.966Z,12.10
2019-05-28T01:12:39.532Z,12.10
2019-05-28T01:17:33.956Z,12.10
2019-05-28T01:22:27.473Z,12.20
2019-05-28T01:27:21.008Z,12.20
2019-05-28T01:32:30.642Z,12.30
2019-05-28T01:37:29.863Z,12.10
2019-05-28T01:42:24.399Z,12.20
2019-05-28T01:47:24.628Z,12.20
2019-05-28T01:52:18.418Z,12.20
2019-05-28T01:57:19.600Z,12.30
2019-05-28T02:02:13.087Z,12.20
2019-05-28T02:07:08.669Z,12.20
2019-05-28T02:12:02.179Z,12.00
2019-05-28T02:16:56.960Z,12.00
2019-05-28T02:21:50.526Z,11.80
2019-05-28T02:26:46.013Z,12.00
2019-05-28T02:31:45.396Z,12.00
2019-05-28T02:36:43.229Z,12.10
2019-05-28T02:41:38.620Z,11.90
2019-05-28T02:46:32.378Z,11.90
2019-05-28T02:51:38.120Z,11.80
2019-05-28T02:56:33.360Z,11.70
2019-05-28T03:01:42.754Z,11.70
2019-05-28T03:06:29.975Z,11.70
2019-05-28T03:11:23.488Z,11.70
2019-05-28T03:16:19.459Z,11.60
2019-05-28T03:21:15.002Z,11.50
2019-05-28T03:26:08.575Z,11.40
2019-05-28T03:31:14.220Z,11.20
2019-05-28T03:36:39.617Z,11.20
2019-05-28T03:41:34.625Z,11.10
2019-05-28T03:46:28.104Z,11.00
2019-05-28T03:51:21.647Z,11.20
2019-05-28T03:56:16.230Z,11.10
2019-05-28T04:01:10.851Z,11.30
2019-05-28T04:06:04.514Z,11.50
2019-05-28T04:11:00.040Z,11.40
2019-05-28T04:15:53.597Z,11.40
2019-05-28T04:20:49.251Z,11.40
2019-05-28T04:25:45.422Z,11.50
2019-05-28T04:30:41.188Z,11.60
2019-05-28T04:35:34.680Z,11.70
2019-05-28T04:40:28.503Z,11.80
2019-05-28T04:45:22.042Z,12.00
2019-05-28T04:50:16.632Z,12.30
2019-05-28T04:55:10.513Z,12.30
2019-05-28T05:00:07.645Z,12.40
2019-05-28T05:05:02.090Z,12.30
2019-05-28T05:09:55.641Z,12.40
2019-05-28T05:14:50.144Z,12.40
2019-05-28T05:19:48.735Z,12.40
2019-05-28T05:24:44.954Z,12.50
2019-05-28T05:29:38.429Z,12.70
2019-05-28T05:34:32.797Z,12.80
2019-05-28T05:39:29.747Z,13.00
2019-05-28T05:44:23.220Z,13.20
2019-05-28T05:49:21.407Z,13.50
2019-05-28T05:54:21.344Z,13.60
2019-05-28T05:59:15.153Z,13.80
2019-05-28T06:04:08.751Z,13.90
2019-05-28T06:09:02.489Z,14.20
2019-05-28T06:14:14.094Z,14.60
2019-05-28T06:19:07.928Z,14.90
2019-05-28T06:24:01.482Z,15.10
2019-05-28T06:28:57.963Z,15.10
2019-05-28T06:33:56.819Z,15.40
2019-05-28T06:38:51.572Z,15.30
2019-05-28T06:43:45.055Z,15.50
2019-05-28T06:48:39.537Z,15.90
2019-05-28T06:53:40.826Z,16.10
2019-05-28T06:58:39.894Z,16.20
2019-05-28T07:03:36.377Z,15.90
2019-05-28T07:08:29.928Z,16.60
2019-05-28T07:13:30.350Z,17.20
2019-05-28T07:18:27.473Z,17.50
2019-05-28T07:23:30.345Z,17.40
2019-05-28T07:28:26.616Z,17.50
2019-05-28T07:33:21.389Z,17.80
2019-05-28T07:38:21.133Z,17.50
2019-05-28T07:43:15.636Z,16.90
2019-05-28T07:48:09.193Z,16.40
2019-05-28T07:53:03.724Z,16.10
2019-05-28T07:57:58.224Z,15.80
2019-05-28T08:02:51.712Z,15.80
2019-05-28T08:07:47.945Z,16.00
2019-05-28T08:12:41.496Z,16.00
2019-05-28T08:17:37.473Z,16.10
2019-05-28T08:22:41.860Z,16.20
2019-05-28T08:27:26.635Z,16.30
2019-05-28T08:32:20.236Z,17.00
2019-05-28T08:37:26.386Z,17.50
2019-05-28T08:42:21.209Z,17.20
2019-05-28T08:47:14.755Z,17.20
2019-05-28T08:52:08.312Z,17.30
2019-05-28T08:57:05.215Z,17.40
2019-05-28T09:02:26.569Z,17.60
2019-05-28T09:07:03.990Z,17.70
2019-05-28T09:12:00.583Z,17.90
2019-05-28T09:16:54.069Z,17.80
2019-05-28T09:21:50.336Z,17.90
2019-05-28T09:26:45.784Z,18.30
2019-05-28T09:31:39.354Z,18.50
2019-05-28T09:36:34.868Z,19.10
2019-05-28T09:41:28.360Z,19.60
2019-05-28T09:46:40.385Z,19.60
2019-05-28T09:51:34.234Z,19.50
2019-05-28T09:56:33.719Z,18.90
2019-05-28T10:01:27.485Z,18.50
2019-05-28T10:06:34.571Z,18.90
2019-05-28T10:11:18.143Z,19.00
2019-05-28T10:16:11.717Z,18.60
2019-05-28T10:21:17.684Z,18.30
2019-05-28T10:26:00.520Z,18.10
2019-05-28T10:30:57.065Z,17.80
2019-05-28T10:35:50.615Z,18.30
2019-05-28T10:40:44.432Z,17.70
2019-05-28T10:45:38.019Z,18.00
2019-05-28T10:50:44.172Z,19.30
2019-05-28T10:55:37.724Z,19.60
2019-05-28T11:00:32.205Z,20.80
2019-05-28T11:05:26.893Z,21.00
2019-05-28T11:10:27.552Z,20.40
2019-05-28T11:15:24.188Z,19.40
2019-05-28T11:20:35.956Z,19.20
2019-05-28T11:25:29.781Z,18.90
2019-05-28T11:30:23.868Z,19.00
2019-05-28T11:35:19.598Z,19.80
2019-05-28T11:40:14.760Z,20.60
2019-05-28T11:45:14.336Z,20.20
2019-05-28T11:50:09.336Z,19.90
2019-05-28T11:55:13.412Z,19.50
2019-05-28T12:00:17.025Z,18.90
2019-05-28T12:05:11.432Z,18.30
2019-05-28T12:10:16.145Z,18.80
2019-05-28T12:15:13.416Z,19.80
2019-05-28T12:20:08.403Z,19.40
2019-05-28T12:25:12.203Z,18.80
2019-05-28T12:30:17.990Z,18.70
2019-05-28T12:35:26.208Z,19.10
2019-05-28T12:40:09.169Z,19.30
2019-05-28T12:45:34.234Z,19.90
2019-05-28T12:50:19.682Z,20.70
2019-05-28T12:55:11.978Z,21.10
2019-05-28T13:00:10.222Z,20.80
2019-05-28T13:05:18.305Z,20.10
2019-05-28T13:10:14.969Z,21.20
2019-05-28T13:15:10.535Z,21.50
2019-05-28T13:20:07.907Z,20.40
2019-05-28T13:25:01.430Z,21.20
2019-05-28T13:29:55.933Z,22.10
2019-05-28T13:34:50.688Z,21.40
2019-05-28T13:39:44.192Z,22.50
2019-05-28T13:44:45.869Z,23.50
2019-05-28T13:49:39.423Z,22.70
2019-05-28T13:54:36.310Z,21.30
2019-05-28T13:59:29.972Z,20.10
2019-05-28T14:04:36.782Z,20.10
2019-05-28T14:09:31.244Z,19.70
2019-05-28T14:14:26.682Z,19.40
2019-05-28T14:19:29.168Z,18.90
2019-05-28T14:24:22.640Z,18.70
2019-05-28T14:29:19.445Z,18.70
2019-05-28T14:34:13.004Z,18.70
2019-05-28T14:39:08.832Z,18.70
2019-05-28T14:44:05.113Z,19.10
2019-05-28T14:48:59.636Z,19.40
2019-05-28T14:53:54.004Z,19.40
2019-05-28T14:58:53.743Z,19.50
2019-05-28T15:03:53.496Z,19.30
2019-05-28T15:08:46.984Z,18.70
2019-05-28T15:13:50.801Z,18.80
2019-05-28T15:18:44.733Z,19.00
2019-05-28T15:23:40.141Z,18.70
2019-05-28T15:28:33.680Z,18.70
2019-05-28T15:33:30.604Z,18.60
2019-05-28T15:38:24.120Z,18.60
2019-05-28T15:43:24.796Z,18.70
2019-05-28T15:48:20.403Z,18.10
2019-05-28T15:53:13.952Z,18.10
2019-05-28T15:58:07.511Z,18.30
2019-05-28T16:03:00.992Z,18.10
2019-05-28T16:07:57.469Z,18.10
2019-05-28T16:12:55.861Z,17.80
2019-05-28T16:17:55.155Z,17.50
2019-05-28T16:22:51.366Z,17.10
2019-05-28T16:27:47.945Z,17.00
2019-05-28T16:32:43.412Z,16.90
2019-05-28T16:37:37.367Z,16.70
2019-05-28T16:42:30.915Z,16.40
2019-05-28T16:47:25.349Z,16.20
2019-05-28T16:52:18.929Z,16.20
2019-05-28T16:57:12.568Z,16.30
2019-05-28T17:02:12.811Z,15.90
2019-05-28T17:07:16.278Z,15.60
2019-05-28T17:12:25.212Z,15.50
2019-05-28T17:17:18.755Z,15.50
2019-05-28T17:22:12.320Z,15.40
2019-05-28T17:27:06.047Z,15.30
2019-05-28T17:32:02.561Z,15.10
2019-05-28T17:36:56.208Z,14.80
2019-05-28T17:41:49.700Z,14.80
2019-05-28T17:46:43.452Z,14.70
2019-05-28T17:51:42.652Z,14.50
2019-05-28T17:56:41.085Z,14.60
2019-05-28T18:01:34.553Z,14.40
2019-05-28T18:06:28.040Z,14.40
2019-05-28T18:11:21.583Z,14.30
2019-05-28T18:16:27.194Z,14.20
2019-05-28T18:21:21.741Z,14.20
2019-05-28T18:26:15.289Z,14.10
2019-05-28T18:31:09.036Z,14.00
2019-05-28T18:36:02.629Z,13.60
2019-05-28T18:40:57.165Z,13.40
2019-05-28T18:45:51.006Z,13.30
2019-05-28T18:50:49.956Z,13.10
2019-05-28T18:55:43.569Z,12.90
2019-05-28T19:00:37.033Z,12.90
2019-05-28T19:05:30.517Z,12.60
2019-05-28T19:10:23.996Z,12.50
2019-05-28T19:15:18.022Z,12.40
2019-05-28T19:20:13.225Z,12.30
2019-05-28T19:25:10.514Z,12.20
2019-05-28T19:30:07.106Z,12.00
2019-05-28T19:35:01.739Z,11.90
2019-05-28T19:39:55.461Z,11.80
2019-05-28T19:44:48.944Z,11.70
2019-05-28T19:49:42.421Z,11.50
2019-05-28T19:54:37.156Z,11.40
2019-05-28T19:59:33.914Z,11.20
2019-05-28T20:04:27.256Z,11.20
2019-05-28T20:09:20.735Z,11.10
2019-05-28T20:14:17.168Z,11.00
2019-05-28T20:19:13.380Z,10.90
2019-05-28T20:24:09.673Z,10.70
2019-05-28T20:29:08.251Z,10.60
2019-05-28T20:33:59.070Z,10.60
2019-05-28T20:38:52.600Z,10.50
2019-05-28T20:43:48.356Z,10.20
2019-05-28T20:48:43.172Z,10.10
2019-05-28T20:53:36.661Z,10.00
2019-05-28T20:58:40.177Z,10.00
2019-05-28T21:03:30.509Z,9.90
2019-05-28T21:08:23.979Z,9.90
2019-05-28T21:13:19.505Z,9.80
2019-05-28T21:18:14.880Z,9.80
2019-05-28T21:23:08.432Z,9.70
2019-05-28T21:28:01.902Z,9.70
2019-05-28T21:32:56.689Z,9.70
2019-05-28T21:37:50.989Z,9.70
2019-05-28T21:42:58.484Z,9.60
2019-05-28T21:47:41.801Z,9.50
2019-05-28T21:52:35.262Z,9.40
2019-05-28T21:57:29.954Z,9.30
2019-05-28T22:02:23.461Z,9.10
2019-05-28T22:07:22.697Z,9.00
2019-05-28T22:12:16.133Z,8.90
2019-05-28T22:17:13.018Z,8.80
2019-05-28T22:22:10.713Z,8.70
2019-05-28T22:27:19.254Z,8.60
2019-05-28T22:32:13.067Z,8.50
2019-05-28T22:37:06.782Z,8.50
2019-05-28T22:42:01.568Z,8.40
2019-05-28T22:46:55.077Z,8.30
2019-05-28T22:51:48.520Z,8.30
2019-05-28T22:56:45.270Z,8.20
2019-05-28T23:01:38.946Z,8.20
2019-05-28T23:06:32.391Z,8.10
2019-05-28T23:11:27.761Z,8.00
2019-05-28T23:16:21.188Z,7.90
2019-05-28T23:21:14.620Z,7.80
2019-05-28T23:26:08.082Z,7.80
2019-05-28T23:31:01.815Z,7.80
2019-05-28T23:35:59.354Z,7.70
2019-05-28T23:40:55.253Z,7.70
2019-05-28T23:45:48.945Z,7.60
2019-05-28T23:50:44.304Z,7.60
2019-05-28T23:55:37.741Z,7.50
